Time;durP1;ratioP1;P1;durP2;ratioP2;P2;SDS_P1;SDS_P2;PMS_P1;PMS_P2;Temp;Humidity;BMP_temperature;BMP_pressure;BME280_temperature;BME280_humidity;BME280_pressure;Samples;Min_cycle;Max_cycle;Signal;HPM_P1;HPM_P2
2023/10/07 00:01:47;;;;;;;4.63;2.42;;;;;;;-145.68;57.25;73711.66;10444475;28;20745;-68
2023/10/07 00:06:48;;;;;;;5.78;3.08;;;;;;;-145.68;57.63;73709.69;10444095;28;20208;-68
2023/10/07 00:11:48;;;;;;;6.30;3.08;;;;;;;-145.68;58.04;73723.66;10441653;28;20202;-68
2023/10/07 00:16:50;;;;;;;6.85;2.75;;;;;;;-145.68;58.25;73711.66;10444047;28;20708;-68
2023/10/07 00:21:58;;;;;;;5.82;2.60;;;;;;;-145.68;58.57;73731.66;10443897;28;20227;-68
2023/10/07 00:26:59;;;;;;;4.90;2.42;;;;;;;-145.68;58.42;73715.66;10440344;28;20705;-68
2023/10/07 00:32:00;;;;;;;6.10;2.80;;;;;;;-145.68;58.63;73715.66;10443544;28;20192;-68
2023/10/07 00:37:00;;;;;;;5.07;2.60;;;;;;;-145.68;58.90;73711.66;10442729;28;20752;-68
2023/10/07 00:42:07;;;;;;;6.25;3.05;;;;;;;-145.68;59.20;73731.66;10440873;28;20771;-68
2023/10/07 00:47:12;;;;;;;7.13;3.22;;;;;;;-145.68;59.45;73713.66;10439813;28;20230;-68
2023/10/07 00:52:24;;;;;;;6.32;2.95;;;;;;;-145.68;59.47;73713.66;10431396;28;20192;-68
2023/10/07 01:02:30;;;;;;;4.88;2.78;;;;;;;-145.68;59.86;73719.66;10441706;28;20229;-68
2023/10/07 01:07:34;;;;;;;5.15;2.70;;;;;;;-145.68;59.76;73693.69;10438336;28;20250;-68
2023/10/07 01:12:44;;;;;;;6.85;2.80;;;;;;;-145.68;60.17;73703.69;10442058;28;20187;-68
2023/10/07 01:17:45;;;;;;;5.82;3.00;;;;;;;-145.68;60.30;73699.69;10438837;28;20568;-68
2023/10/07 01:23:02;;;;;;;4.53;2.60;;;;;;;-145.68;60.61;73703.69;10440037;28;20227;-68
2023/10/07 01:28:04;;;;;;;5.22;2.92;;;;;;;-145.68;60.81;73691.69;10460781;23;20242;-65
2023/10/07 01:33:24;;;;;;;7.60;2.80;;;;;;;-145.68;60.74;73699.69;10459816;28;20184;-64
2023/10/07 01:38:25;;;;;;;6.75;2.85;;;;;;;-145.68;60.97;73699.69;10467690;28;20215;-64
2023/10/07 01:43:26;;;;;;;6.65;2.65;;;;;;;-145.68;60.91;73689.69;10440721;28;20224;-65
2023/10/07 01:48:27;;;;;;;5.13;2.58;;;;;;;-145.68;60.90;73697.69;10439740;28;20216;-64
2023/10/07 01:53:28;;;;;;;4.82;2.58;;;;;;;-145.68;60.93;73691.69;10440134;28;20262;-65
2023/10/07 01:58:30;;;;;;;5.45;2.90;;;;;;;-145.68;61.18;73703.69;10439419;28;20212;-66
2023/10/07 02:03:32;;;;;;;4.90;2.55;;;;;;;-145.68;61.24;73697.69;10422185;28;20220;-65
2023/10/07 02:08:33;;;;;;;3.75;2.53;;;;;;;-145.68;61.59;73701.69;10439503;28;20645;-65
2023/10/07 02:13:33;;;;;;;5.50;2.70;;;;;;;-145.68;61.32;73691.69;10438790;28;20242;-66
2023/10/07 02:18:35;;;;;;;9.30;3.05;;;;;;;-145.68;61.33;73677.69;10439515;28;20682;-66
2023/10/07 02:23:43;;;;;;;7.05;3.03;;;;;;;-145.68;61.54;73681.69;10439647;28;20243;-65
2023/10/07 02:28:44;;;;;;;5.00;2.88;;;;;;;-145.68;61.72;73685.69;10439070;28;20234;-66
2023/10/07 02:33:45;;;;;;;6.00;3.03;;;;;;;-145.68;61.90;73683.69;10438874;28;20195;-66
2023/10/07 02:38:52;;;;;;;5.40;2.78;;;;;;;-145.68;62.04;73693.69;10438220;28;20244;-65
2023/10/07 02:43:52;;;;;;;5.55;2.42;;;;;;;-145.68;61.68;73687.69;10436786;28;20748;-66
2023/10/07 02:49:01;;;;;;;7.38;3.60;;;;;;;-145.68;61.76;73683.69;10437676;28;20207;-66
2023/10/07 02:54:12;;;;;;;7.28;2.80;;;;;;;-145.68;61.68;73699.69;10437830;28;20202;-66
2023/10/07 02:59:28;;;;;;;5.75;3.05;;;;;;;-145.68;61.50;73689.69;10419561;28;20204;-65
2023/10/07 03:04:34;;;;;;;4.97;2.88;;;;;;;-145.68;61.69;73697.69;10402600;28;20235;-66
2023/10/07 03:09:35;;;;;;;8.35;3.20;;;;;;;-145.68;61.61;73699.69;10436867;28;20215;-64
2023/10/07 03:14:36;;;;;;;5.82;2.78;;;;;;;-145.68;61.96;73717.66;10436489;28;20184;-64
2023/10/07 03:20:04;;;;;;;5.97;2.80;;;;;;;-145.68;62.25;73727.66;10418048;28;20212;-64
2023/10/07 03:25:07;;;;;;;5.38;2.60;;;;;;;-145.68;62.26;73721.66;10435636;28;20220;-65
2023/10/07 03:30:12;;;;;;;6.28;3.00;;;;;;;-145.68;61.98;73699.69;10436024;28;20310;-64
2023/10/07 03:35:25;;;;;;;6.13;2.97;;;;;;;-145.68;61.57;73695.69;10436647;28;20185;-65
2023/10/07 03:40:25;;;;;;;5.80;3.20;;;;;;;-145.68;61.26;73699.69;10436310;28;20221;-66
2023/10/07 03:45:28;;;;;;;4.97;2.80;;;;;;;-145.68;60.88;73683.69;10436547;28;20216;-65
2023/10/07 03:50:34;;;;;;;6.30;2.95;;;;;;;-145.68;60.61;73691.69;10435890;28;20208;-65
2023/10/07 03:55:40;;;;;;;7.05;3.38;;;;;;;-145.68;60.48;73695.69;10436547;28;20618;-65
2023/10/07 04:00:41;;;;;;;11.77;3.97;;;;;;;-145.68;60.04;73697.69;10435719;28;20215;-65
2023/10/07 04:05:49;;;;;;;5.47;3.22;;;;;;;-145.68;60.29;73691.69;10435968;28;20246;-64
2023/10/07 04:10:54;;;;;;;5.97;3.30;;;;;;;-145.68;60.25;73703.69;10435627;28;20708;-64
2023/10/07 04:15:57;;;;;;;8.60;3.65;;;;;;;-145.68;60.03;73699.69;10435461;28;20211;-65
2023/10/07 04:20:58;;;;;;;6.57;3.50;;;;;;;-145.68;60.62;73715.66;10435616;28;20229;-65
2023/10/07 04:26:08;;;;;;;6.75;2.97;;;;;;;-145.68;60.58;73723.66;10432640;28;20216;-65
2023/10/07 04:31:12;;;;;;;10.48;3.78;;;;;;;-145.68;60.84;73727.66;10434124;28;20614;-64
2023/10/07 04:36:13;;;;;;;7.72;3.15;;;;;;;-145.68;61.18;73747.66;10430853;28;20189;-64
2023/10/07 04:46:24;;;;;;;6.55;3.47;;;;;;;-145.68;61.85;73763.66;10434920;28;20193;-64
2023/10/07 04:56:33;;;;;;;7.55;3.70;;;;;;;-145.68;62.52;73777.63;10439830;28;20604;-64
2023/10/07 05:01:33;;;;;;;7.32;3.47;;;;;;;-145.68;63.10;73785.63;10439644;28;20235;-66
2023/10/07 05:06:34;;;;;;;7.18;3.83;;;;;;;-145.68;63.11;73805.63;10439875;28;20670;-65
2023/10/07 05:11:43;;;;;;;9.63;4.15;;;;;;;-145.68;63.22;73803.63;10440016;28;20228;-66
2023/10/07 05:16:47;;;;;;;7.80;3.75;;;;;;;-145.68;63.61;73811.63;10438805;28;20302;-64
2023/10/07 05:27:12;;;;;;;9.23;3.25;;;;;;;-145.68;64.42;73803.63;10438407;28;20249;-66
2023/10/07 05:32:13;;;;;;;8.93;3.60;;;;;;;-145.68;64.42;73815.63;10438887;28;20193;-67
2023/10/07 05:37:14;;;;;;;7.78;3.58;;;;;;;-145.68;64.44;73805.63;10438661;28;20196;-66
2023/10/07 05:42:15;;;;;;;6.97;3.30;;;;;;;-145.68;64.75;73803.63;10438121;28;20355;-66
2023/10/07 05:47:15;;;;;;;6.07;4.03;;;;;;;-145.68;64.56;73797.63;10430690;28;20258;-66
2023/10/07 05:52:18;;;;;;;8.68;3.67;;;;;;;-145.68;64.20;73817.63;10436869;28;20185;-66
2023/10/07 05:57:18;;;;;;;7.30;3.45;;;;;;;-145.68;64.15;73815.63;10437968;28;20216;-66
2023/10/07 06:02:19;;;;;;;8.60;3.63;;;;;;;-145.68;64.00;73823.63;10433193;28;20236;-65
2023/10/07 06:07:21;;;;;;;11.40;3.38;;;;;;;-145.68;63.66;73827.59;10422354;28;20204;-67
2023/10/07 06:12:22;;;;;;;8.98;4.10;;;;;;;-145.68;63.41;73815.63;10437350;28;20659;-67
2023/10/07 06:17:25;;;;;;;10.15;4.50;;;;;;;-145.68;62.80;73793.63;10436592;28;20208;-67
2023/10/07 06:22:25;;;;;;;11.98;3.50;;;;;;;-145.68;62.62;73797.63;10433070;28;20702;-66
2023/10/07 06:27:28;;;;;;;8.27;3.80;;;;;;;-145.68;61.06;73779.63;10436468;28;20278;-66
2023/10/07 06:32:43;;;;;;;8.65;3.58;;;;;;;-145.68;59.77;73741.66;10436638;28;20677;-66
2023/10/07 06:37:44;;;;;;;5.72;3.55;;;;;;;-145.68;59.17;73741.66;10436104;28;20203;-66
2023/10/07 06:42:44;;;;;;;7.78;3.10;;;;;;;-145.68;58.49;73715.66;10435575;28;20215;-67
2023/10/07 06:47:48;;;;;;;6.63;3.13;;;;;;;-145.68;58.16;73735.66;10419971;28;20315;-66
2023/10/07 06:52:49;;;;;;;6.65;3.10;;;;;;;-145.68;57.28;73703.69;10421833;28;20257;-66
2023/10/07 06:57:56;;;;;;;5.22;2.80;;;;;;;-145.68;56.96;73691.69;10431336;28;20274;-67
2023/10/07 07:02:59;;;;;;;7.75;3.25;;;;;;;-145.68;55.61;73633.72;10428252;28;20259;-67
2023/10/07 07:07:59;;;;;;;6.45;3.22;;;;;;;-145.68;56.23;73707.69;10425250;28;20279;-67
2023/10/07 07:13:12;;;;;;;6.35;3.10;;;;;;;-145.68;56.20;73721.66;10415710;28;20551;-67
2023/10/07 07:23:15;;;;;;;5.97;2.70;;;;;;;-145.68;54.36;73579.75;10414070;28;20216;-65
2023/10/07 07:28:17;;;;;;;5.88;2.97;;;;;;;-145.68;52.89;73513.78;10427909;28;20706;-67
2023/10/07 07:33:22;;;;;;;6.80;3.20;;;;;;;-145.68;51.50;73415.84;10412372;28;20681;-68
2023/10/07 07:38:29;;;;;;;7.13;3.50;;;;;;;-145.68;51.25;73377.88;10432805;28;20246;-67
2023/10/07 07:43:30;;;;;;;5.45;3.30;;;;;;;-145.68;51.99;73477.81;10433117;28;20669;-68
2023/10/07 07:48:36;;;;;;;8.55;3.17;;;;;;;-145.68;51.32;73403.84;10432577;28;20224;-68
2023/10/07 07:53:36;;;;;;;5.82;3.20;;;;;;;-145.68;50.06;73289.94;10433271;28;20216;-68
2023/10/07 07:58:37;;;;;;;8.38;3.13;;;;;;;-145.68;50.69;73357.88;10431510;28;20302;-67
2023/10/07 08:03:38;;;;;;;5.40;3.05;;;;;;;-145.68;50.93;73373.88;10410913;28;20208;-68
2023/10/07 08:08:39;;;;;;;8.68;2.95;;;;;;;-145.68;49.56;73275.94;10416356;28;20930;-67
2023/10/07 08:13:39;;;;;;;6.88;3.08;;;;;;;-145.68;49.53;73259.94;10435913;28;20690;-68
2023/10/07 08:18:40;;;;;;;8.35;3.05;;;;;;;-145.68;49.63;73271.94;10427307;28;20568;-67
2023/10/07 08:23:41;;;;;;;7.60;3.30;;;;;;;-145.68;53.09;73361.88;10432854;28;20693;-67
2023/10/07 08:28:47;;;;;;;12.68;3.63;;;;;;;-145.68;68.31;73723.66;10436817;28;20228;-68
2023/10/07 08:33:53;;;;;;;7.82;4.32;;;;;;;-145.68;82.02;73829.59;10440095;28;20207;-66
2023/10/07 08:38:56;;;;;;;6.65;3.45;;;;;;;-145.68;94.45;73827.59;10433606;28;20254;-67
2023/10/07 08:44:17;;;;;;;5.25;3.55;;;;;;;-145.68;95.03;73767.66;10439261;28;20693;-68
2023/10/07 08:49:24;;;;;;;7.95;3.75;;;;;;;-145.68;99.29;73829.59;10415022;28;20634;-67
2023/10/07 08:54:31;;;;;;;4.53;2.83;;;;;;;-145.68;100.00;73747.66;10433993;28;20189;-66
2023/10/07 08:59:32;;;;;;;6.65;3.67;;;;;;;-145.68;97.50;73717.66;10437316;28;20223;-66
2023/10/07 09:04:33;;;;;;;9.93;2.80;;;;;;;-145.68;90.49;73637.72;10434853;28;20220;-67
2023/10/07 09:09:38;;;;;;;6.75;3.00;;;;;;;-145.68;85.78;73683.69;10417039;28;20305;-67
2023/10/07 09:14:46;;;;;;;5.78;3.30;;;;;;;-145.68;84.00;73651.72;10433301;28;20249;-66
2023/10/07 09:19:49;;;;;;;4.93;3.28;;;;;;;-145.68;80.62;73635.72;10436834;28;20307;-66
2023/10/07 09:24:54;;;;;;;6.57;3.38;;;;;;;-145.68;77.95;73613.72;10435650;28;20227;-67
2023/10/07 09:30:06;;;;;;;7.38;3.88;;;;;;;-145.68;76.25;73579.75;10429888;28;20271;-68
2023/10/07 09:35:19;;;;;;;9.00;3.70;;;;;;;-145.68;73.87;73597.75;10436380;28;20609;-68
2023/10/07 09:45:42;;;;;;;9.35;2.97;;;;;;;-145.68;72.84;73571.75;10406090;28;20773;-68
2023/10/07 09:50:45;;;;;;;6.68;2.92;;;;;;;-145.68;73.23;73601.72;10436537;28;20218;-68
2023/10/07 09:56:11;;;;;;;5.72;3.25;;;;;;;-145.68;73.55;73605.72;10435110;28;20188;-68
2023/10/07 10:01:28;;;;;;;8.45;3.67;;;;;;;-145.68;74.29;73647.72;10429430;28;20216;-68
2023/10/07 10:06:50;;;;;;;4.72;3.00;;;;;;;-145.68;76.12;73617.72;10434875;28;20218;-68
2023/10/07 10:17:21;;;;;;;8.68;3.30;;;;;;;-145.68;71.24;73485.81;10434460;28;20219;-67
2023/10/07 10:22:23;;;;;;;6.30;3.30;;;;;;;-145.68;68.96;73429.84;10432228;28;20247;-67
2023/10/07 10:27:26;;;;;;;7.18;2.95;;;;;;;-145.68;68.74;73475.81;10436697;28;20213;-68
2023/10/07 10:32:36;;;;;;;5.32;3.20;;;;;;;-145.68;71.83;73521.78;10436563;28;20193;-68
2023/10/07 10:37:37;;;;;;;5.53;2.88;;;;;;;-145.68;71.05;73451.81;10435927;28;20248;-68
2023/10/07 10:42:42;;;;;;;11.13;3.08;;;;;;;-145.68;70.21;73411.84;10436131;28;20689;-68
2023/10/07 10:47:46;;;;;;;4.82;2.60;;;;;;;-145.68;70.84;73453.81;10433005;28;20207;-68
2023/10/07 10:52:49;;;;;;;5.20;2.78;;;;;;;-145.68;72.93;73457.81;10432595;28;20685;-68
2023/10/07 10:57:50;;;;;;;6.43;3.35;;;;;;;-145.68;74.07;73435.84;10435306;28;20219;-69
2023/10/07 11:02:52;;;;;;;8.70;3.38;;;;;;;-145.68;74.91;73437.84;10434329;28;20269;-68
2023/10/07 11:07:52;;;;;;;6.65;2.95;;;;;;;-145.68;73.87;73367.88;10430183;28;20219;-69
2023/10/07 11:12:56;;;;;;;7.10;2.65;;;;;;;-145.68;71.36;73309.91;10435943;28;20188;-69
2023/10/07 11:18:11;;;;;;;6.43;2.65;;;;;;;-145.68;70.46;73345.88;10422562;28;20216;-67
2023/10/07 11:23:15;;;;;;;5.35;2.67;;;;;;;-145.68;72.33;73399.84;10411682;28;21373;-68
2023/10/07 11:28:20;;;;;;;6.25;2.92;;;;;;;-145.68;73.01;73419.84;10415640;28;20227;-66
2023/10/07 11:33:20;;;;;;;4.35;2.40;;;;;;;-145.68;74.25;73419.84;10431552;28;20203;-66
2023/10/07 11:38:21;;;;;;;8.30;2.85;;;;;;;-145.68;74.13;73411.84;10434293;28;20234;-67
2023/10/07 11:43:24;;;;;;;4.38;2.85;;;;;;;-145.68;73.83;73375.88;10434255;28;20239;-65
2023/10/07 11:48:25;;;;;;;4.63;2.50;;;;;;;-145.68;71.39;73329.91;10435034;28;20212;-66
2023/10/07 11:53:26;;;;;;;7.78;2.97;;;;;;;-145.68;70.88;73325.91;10433724;28;20188;-65
2023/10/07 11:58:26;;;;;;;6.53;2.63;;;;;;;-145.68;70.14;73293.94;10433666;28;20610;-65
2023/10/07 12:03:26;;;;;;;4.97;2.63;;;;;;;-145.68;69.16;73265.94;10433854;28;20299;-66
2023/10/07 12:08:27;;;;;;;10.10;2.40;;;;;;;-145.68;69.79;73279.94;10434531;28;20215;-65
2023/10/07 12:13:28;;;;;;;4.53;2.45;;;;;;;-145.68;71.34;73307.91;10433655;28;20188;-66
2023/10/07 12:18:29;;;;;;;3.63;2.25;;;;;;;-145.68;71.76;73303.91;10433468;28;20632;-65
2023/10/07 12:23:30;;;;;;;5.82;2.28;;;;;;;-145.68;71.00;73301.91;10433225;28;20270;-65
2023/10/07 12:28:30;;;;;;;4.13;2.47;;;;;;;-145.68;70.77;73315.91;10433101;28;20298;-66
2023/10/07 12:33:30;;;;;;;5.00;2.35;;;;;;;-145.68;70.59;73313.91;10433317;28;20347;-65
2023/10/07 12:38:31;;;;;;;4.97;2.35;;;;;;;-145.68;70.53;73301.91;10432867;28;20212;-67
2023/10/07 12:43:32;;;;;;;3.13;1.90;;;;;;;-145.68;69.57;73291.94;10433179;28;20346;-66
2023/10/07 12:48:33;;;;;;;5.95;2.40;;;;;;;-145.68;69.63;73307.91;10432985;28;20216;-66
2023/10/07 12:53:33;;;;;;;5.50;2.50;;;;;;;-145.68;69.97;73333.91;10433094;28;20209;-66
2023/10/07 12:58:33;;;;;;;4.95;2.33;;;;;;;-145.68;70.32;73339.91;10434415;28;20212;-65
2023/10/07 13:03:39;;;;;;;4.75;2.90;;;;;;;-145.68;70.36;73341.91;10439486;28;20326;-65
2023/10/07 13:08:40;;;;;;;3.70;2.28;;;;;;;-145.68;70.34;73343.88;10440211;28;20208;-64
2023/10/07 13:13:41;;;;;;;2.97;2.10;;;;;;;-145.68;69.57;73311.91;10439726;28;20223;-65
2023/10/07 13:18:42;;;;;;;3.75;2.25;;;;;;;-145.68;69.51;73323.91;10439684;28;20211;-65
2023/10/07 13:23:46;;;;;;;5.70;2.97;;;;;;;-145.68;69.31;73323.91;10439329;28;20227;-65
2023/10/07 13:28:48;;;;;;;4.85;2.47;;;;;;;-145.68;69.20;73311.91;10438707;28;20271;-65
2023/10/07 13:33:48;;;;;;;5.70;2.50;;;;;;;-145.68;68.57;73265.94;10439461;28;20193;-65
2023/10/07 13:38:50;;;;;;;4.22;2.13;;;;;;;-145.68;68.35;73287.94;10438786;28;20761;-65
2023/10/07 13:43:51;;;;;;;4.60;2.78;;;;;;;-145.68;68.70;73323.91;10438689;28;20224;-65
2023/10/07 13:48:52;;;;;;;6.97;2.92;;;;;;;-145.68;68.76;73315.91;10438766;28;20226;-65
2023/10/07 13:54:22;;;;;;;5.85;3.15;;;;;;;-145.68;68.62;73279.94;10437830;28;20188;-63
2023/10/07 13:59:13;;;;;;;6.65;3.00;;;;;;;-145.68;67.77;73281.94;10437768;28;20216;-63
2023/10/07 14:04:15;;;;;;;6.47;2.58;;;;;;;-145.68;68.65;73311.91;10438701;28;20225;-65
2023/10/07 14:09:24;;;;;;;8.00;2.70;;;;;;;-145.68;68.47;73311.91;10437620;28;20224;-65
2023/10/07 14:14:27;;;;;;;5.88;2.90;;;;;;;-145.68;68.25;73271.94;10438126;28;20192;-65
2023/10/07 14:19:28;;;;;;;5.55;3.17;;;;;;;-145.68;67.40;73271.94;10437882;28;20212;-66
2023/10/07 14:24:29;;;;;;;5.97;2.75;;;;;;;-145.68;68.40;73307.91;10437962;28;20690;-66
2023/10/07 14:29:30;;;;;;;5.97;3.22;;;;;;;-145.68;68.43;73311.91;10436825;28;20247;-66
2023/10/07 14:34:31;;;;;;;5.30;2.72;;;;;;;-145.68;67.31;73281.94;10437424;28;20199;-65
2023/10/07 14:39:32;;;;;;;7.18;2.95;;;;;;;-145.68;68.39;73327.91;10436710;28;20679;-65
2023/10/07 14:44:32;;;;;;;6.85;3.20;;;;;;;-145.68;69.04;73345.88;10436970;28;20235;-65
2023/10/07 14:49:33;;;;;;;7.22;3.10;;;;;;;-145.68;68.96;73343.88;10436959;28;20216;-65
2023/10/07 14:54:34;;;;;;;5.78;2.97;;;;;;;-145.68;69.31;73353.88;10436548;28;20192;-64
2023/10/07 14:59:34;;;;;;;6.90;3.13;;;;;;;-145.68;69.23;73355.88;10436203;28;21233;-65
2023/10/07 15:04:34;;;;;;;6.38;2.92;;;;;;;-145.68;69.27;73377.88;10436002;28;20231;-65
2023/10/07 15:09:35;;;;;;;11.07;3.33;;;;;;;-145.68;68.57;73367.88;10436251;28;20218;-65
2023/10/07 15:14:35;;;;;;;15.57;7.22;;;;;;;-145.68;68.47;73363.88;10435884;28;20184;-65
2023/10/07 15:19:36;;;;;;;7.90;3.55;;;;;;;-145.68;68.38;73365.88;10435946;28;20211;-65
2023/10/07 15:24:37;;;;;;;6.95;3.22;;;;;;;-145.68;67.79;73349.88;10435588;28;20215;-64
2023/10/07 15:29:38;;;;;;;9.57;3.47;;;;;;;-145.68;67.93;73351.88;10434756;28;20638;-65
2023/10/07 15:34:39;;;;;;;8.77;3.60;;;;;;;-145.68;67.52;73361.88;10435411;28;20192;-65
2023/10/07 15:39:39;;;;;;;11.85;3.25;;;;;;;-145.68;67.90;73371.88;10434903;28;20223;-65
2023/10/07 15:44:39;;;;;;;9.23;2.95;;;;;;;-145.68;67.55;73363.88;10435143;28;20569;-65
2023/10/07 15:49:42;;;;;;;9.65;3.25;;;;;;;-145.68;66.97;73363.88;10434859;28;20679;-65
2023/10/07 15:54:43;;;;;;;12.77;4.07;;;;;;;-145.68;67.21;73371.88;10434859;28;20191;-65
2023/10/07 15:59:43;;;;;;;13.63;3.17;;;;;;;-145.68;67.32;73375.88;10434777;28;20560;-66
2023/10/07 16:04:44;;;;;;;6.72;3.30;;;;;;;-145.68;67.29;73375.88;10434702;28;20593;-65
2023/10/07 16:09:45;;;;;;;12.15;3.40;;;;;;;-145.68;67.55;73383.88;10434496;28;20589;-65
2023/10/07 16:14:47;;;;;;;11.73;3.95;;;;;;;-145.68;67.49;73383.88;10432369;28;20188;-64
2023/10/07 16:19:48;;;;;;;10.90;3.75;;;;;;;-145.68;67.55;73383.88;10434500;28;20203;-65
2023/10/07 16:24:48;;;;;;;8.15;3.58;;;;;;;-145.68;67.51;73375.88;10434240;28;20222;-65
2023/10/07 16:29:49;;;;;;;8.23;3.88;;;;;;;-145.68;66.99;73361.88;10434107;28;20733;-65
2023/10/07 16:34:50;;;;;;;15.18;3.70;;;;;;;-145.68;66.85;73357.88;10438047;28;20659;-65
2023/10/07 16:39:53;;;;;;;13.52;3.97;;;;;;;-145.68;66.94;73367.88;10441737;28;20215;-65
2023/10/07 16:44:54;;;;;;;10.07;3.78;;;;;;;-145.68;66.72;73371.88;10441177;28;20219;-66
2023/10/07 16:49:54;;;;;;;10.38;4.45;;;;;;;-145.68;66.60;73375.88;10441339;28;20216;-65
2023/10/07 16:54:55;;;;;;;12.55;4.75;;;;;;;-145.68;66.08;73365.88;10441506;28;20654;-65
2023/10/07 16:59:55;;;;;;;8.07;3.30;;;;;;;-145.68;65.96;73355.88;10441017;28;20705;-65
2023/10/07 17:04:56;;;;;;;11.02;4.15;;;;;;;-145.68;65.57;73357.88;10440781;28;20666;-66
2023/10/07 17:09:56;;;;;;;9.98;4.00;;;;;;;-145.68;65.48;73361.88;10440738;28;20222;-65
2023/10/07 17:14:56;;;;;;;8.45;3.78;;;;;;;-145.68;65.30;73357.88;10440518;28;20283;-64
2023/10/07 17:19:57;;;;;;;12.18;3.85;;;;;;;-145.68;65.23;73347.88;10440827;28;20219;-65
2023/10/07 17:24:57;;;;;;;9.80;3.50;;;;;;;-145.68;65.12;73347.88;10440154;28;20310;-65
2023/10/07 17:29:58;;;;;;;7.97;3.58;;;;;;;-145.68;65.02;73359.88;10439293;28;20246;-66
2023/10/07 17:34:59;;;;;;;7.57;3.38;;;;;;;-145.68;65.07;73351.88;10439639;28;20581;-63
2023/10/07 17:39:59;;;;;;;8.68;3.42;;;;;;;-145.68;64.93;73351.88;10439191;28;20227;-64
2023/10/07 17:44:59;;;;;;;9.77;3.70;;;;;;;-145.68;65.03;73363.88;10438531;28;20284;-65
2023/10/07 17:50:00;;;;;;;8.25;3.58;;;;;;;-145.68;64.76;73345.88;10438992;28;20223;-65
2023/10/07 17:55:00;;;;;;;10.85;3.70;;;;;;;-145.68;64.35;73353.88;10439293;28;20199;-66
2023/10/07 18:00:00;;;;;;;9.88;3.63;;;;;;;-145.68;64.06;73331.91;10439055;28;20224;-65
2023/10/07 18:05:01;;;;;;;9.88;3.78;;;;;;;-145.68;63.83;73343.88;10438676;28;20258;-65
2023/10/07 18:10:01;;;;;;;7.57;3.53;;;;;;;-145.68;63.73;73351.88;10438222;28;20274;-65
2023/10/07 18:15:02;;;;;;;14.43;3.60;;;;;;;-145.68;63.54;73335.91;10438475;28;20196;-65
2023/10/07 18:20:02;;;;;;;12.88;3.85;;;;;;;-145.68;62.94;73339.91;10438257;28;20250;-65
2023/10/07 18:25:03;;;;;;;9.73;4.07;;;;;;;-145.68;62.63;73341.91;10437627;28;20693;-65
2023/10/07 18:30:06;;;;;;;9.23;3.97;;;;;;;-145.68;62.43;73343.88;10437278;28;20618;-66
2023/10/07 18:35:07;;;;;;;9.40;3.70;;;;;;;-145.68;62.45;73359.88;10437520;28;20267;-66
2023/10/07 18:40:09;;;;;;;8.27;3.65;;;;;;;-145.68;62.26;73355.88;10437215;28;20270;-65
2023/10/07 18:45:10;;;;;;;7.80;3.45;;;;;;;-145.68;62.22;73373.88;10436791;28;20219;-65
2023/10/07 18:50:13;;;;;;;12.15;3.83;;;;;;;-145.68;62.49;73371.88;10436674;28;20697;-65
2023/10/07 18:55:14;;;;;;;9.55;4.32;;;;;;;-145.68;63.17;73391.84;10436416;28;20193;-64
2023/10/07 19:00:14;;;;;;;10.45;3.97;;;;;;;-145.68;63.29;73379.88;10436027;28;20218;-65
2023/10/07 19:05:15;;;;;;;11.95;3.83;;;;;;;-145.68;63.60;73395.84;10432295;28;20223;-65
2023/10/07 19:10:15;;;;;;;12.65;4.05;;;;;;;-145.68;65.34;73395.84;10428327;28;20605;-67
2023/10/07 19:15:16;;;;;;;12.32;4.25;;;;;;;-145.68;67.31;73427.84;10436193;28;20185;-66
2023/10/07 19:20:16;;;;;;;7.70;3.92;;;;;;;-145.68;67.14;73425.84;10435931;28;20212;-65
2023/10/07 19:25:17;;;;;;;10.60;4.10;;;;;;;-145.68;66.39;73415.84;10435565;28;20686;-65
2023/10/07 19:30:20;;;;;;;9.63;3.90;;;;;;;-145.68;66.26;73413.84;10435135;28;20319;-65
2023/10/07 19:35:20;;;;;;;10.10;4.22;;;;;;;-145.68;65.88;73393.84;10435460;28;20268;-65
2023/10/07 19:40:21;;;;;;;12.00;4.18;;;;;;;-145.68;65.60;73375.88;10435128;28;20314;-64
2023/10/07 19:45:21;;;;;;;13.65;4.40;;;;;;;-145.68;64.92;73389.88;10434879;28;20314;-65
2023/10/07 19:50:21;;;;;;;10.90;3.65;;;;;;;-145.68;64.89;73359.88;10434969;28;20266;-65
2023/10/07 19:55:22;;;;;;;13.27;3.38;;;;;;;-145.68;64.57;73357.88;10434815;28;20192;-65
2023/10/07 20:00:23;;;;;;;9.30;3.97;;;;;;;-145.68;64.46;73355.88;10434423;28;20309;-65
2023/10/07 20:05:23;;;;;;;10.15;4.00;;;;;;;-145.68;64.38;73357.88;10434643;28;20213;-65
2023/10/07 20:10:26;;;;;;;10.15;4.22;;;;;;;-145.68;63.98;73339.91;10439361;28;20266;-65
2023/10/07 20:15:27;;;;;;;10.50;4.07;;;;;;;-145.68;63.92;73345.88;10441917;28;20193;-65
2023/10/07 20:20:27;;;;;;;10.48;3.60;;;;;;;-145.68;63.81;73339.91;10442656;28;20220;-65
2023/10/07 20:25:28;;;;;;;12.57;4.05;;;;;;;-145.68;63.85;73337.91;10442633;28;20578;-64
2023/10/07 20:30:28;;;;;;;9.88;3.90;;;;;;;-145.68;63.96;73319.91;10442331;28;20248;-66
2023/10/07 20:35:33;;;;;;;7.88;4.28;;;;;;;-145.68;63.81;73327.91;10442024;28;20254;-66
2023/10/07 20:40:33;;;;;;;6.72;3.55;;;;;;;-145.68;63.21;73331.91;10442006;28;20242;-65
2023/10/07 20:45:34;;;;;;;7.78;3.80;;;;;;;-145.68;63.57;73325.91;10437447;28;20310;-64
2023/10/07 20:50:35;;;;;;;9.77;3.47;;;;;;;-145.68;63.49;73329.91;10441766;28;21007;-65
2023/10/07 20:55:42;;;;;;;8.50;3.95;;;;;;;-145.68;63.70;73315.91;10441648;28;20199;-65
2023/10/07 21:00:43;;;;;;;9.95;3.95;;;;;;;-145.68;63.58;73329.91;10441233;28;20215;-65
2023/10/07 21:05:43;;;;;;;7.32;3.85;;;;;;;-145.68;63.55;73319.91;10440613;28;20673;-64
2023/10/07 21:10:44;;;;;;;10.52;4.18;;;;;;;-145.68;63.41;73347.88;10440840;28;20294;-65
2023/10/07 21:15:44;;;;;;;5.90;3.78;;;;;;;-145.68;63.44;73339.91;10440475;28;20184;-64
2023/10/07 21:20:45;;;;;;;9.38;3.83;;;;;;;-145.68;63.46;73333.91;10440559;28;20215;-64
2023/10/07 21:25:47;;;;;;;9.38;4.07;;;;;;;-145.68;63.56;73333.91;10438164;28;20706;-65
2023/10/07 21:30:48;;;;;;;9.18;3.58;;;;;;;-145.68;63.51;73327.91;10440232;28;20732;-65
2023/10/07 21:35:48;;;;;;;9.77;3.92;;;;;;;-145.68;63.54;73343.88;10439766;28;20353;-65
2023/10/07 21:40:49;;;;;;;8.18;3.95;;;;;;;-145.68;63.80;73325.91;10439851;28;20632;-65
2023/10/07 21:45:52;;;;;;;11.98;4.00;;;;;;;-145.68;64.04;73323.91;10439589;28;20314;-65
2023/10/07 21:50:53;;;;;;;9.27;4.10;;;;;;;-145.68;64.05;73335.91;10439021;28;20310;-65
2023/10/07 21:55:53;;;;;;;10.35;3.58;;;;;;;-145.68;63.85;73319.91;10438691;28;20214;-65
2023/10/07 22:01:09;;;;;;;9.77;3.65;;;;;;;-145.68;63.78;73325.91;10438299;28;20281;-65
2023/10/07 22:06:13;;;;;;;6.40;3.95;;;;;;;-145.68;64.00;73335.91;10438961;28;20664;-66
2023/10/07 22:11:13;;;;;;;9.70;4.43;;;;;;;-145.68;63.71;73319.91;10438334;28;20651;-65
2023/10/07 22:16:13;;;;;;;11.55;4.47;;;;;;;-145.68;64.03;73331.91;10438820;28;20184;-65
2023/10/07 22:21:14;;;;;;;10.35;4.22;;;;;;;-145.68;64.10;73329.91;10437981;28;20570;-64
2023/10/07 22:26:18;;;;;;;9.73;3.88;;;;;;;-145.68;64.01;73321.91;10437700;28;20220;-64
2023/10/07 22:31:19;;;;;;;13.18;4.60;;;;;;;-145.68;64.38;73333.91;10429702;28;20671;-65
2023/10/07 22:36:22;;;;;;;11.10;4.13;;;;;;;-145.68;64.43;73329.91;10437211;28;20279;-65
2023/10/07 22:41:37;;;;;;;11.15;4.80;;;;;;;-145.68;64.73;73335.91;10437376;28;20243;-66
2023/10/07 22:46:37;;;;;;;7.55;3.80;;;;;;;-145.68;65.00;73351.88;10437350;28;20253;-66
2023/10/07 22:51:42;;;;;;;8.65;3.92;;;;;;;-145.68;65.11;73343.88;10436818;28;20294;-66
2023/10/07 22:56:43;;;;;;;6.57;4.00;;;;;;;-145.68;65.11;73327.91;10436953;28;20203;-65
2023/10/07 23:01:44;;;;;;;9.10;3.53;;;;;;;-145.68;65.35;73339.91;10436306;28;20560;-66
2023/10/07 23:06:56;;;;;;;7.55;3.60;;;;;;;-145.68;65.68;73337.91;10436120;28;20246;-64
2023/10/07 23:12:02;;;;;;;10.40;3.80;;;;;;;-145.68;65.53;73343.88;10435926;28;20301;-65
2023/10/07 23:17:04;;;;;;;13.55;4.18;;;;;;;-145.68;65.76;73343.88;10436370;28;20759;-65
2023/10/07 23:22:13;;;;;;;7.82;3.72;;;;;;;-145.68;65.66;73333.91;10435623;28;20228;-65
2023/10/07 23:27:13;;;;;;;8.95;4.20;;;;;;;-145.68;65.71;73315.91;10435243;28;20574;-65